sensor_id;sensor_type;location;lat;lon;timestamp;P1;durP1;ratioP1;P2;durP2;ratioP2
60372;SDS011;46216;52.220;5.134;2022-09-16T00:00:11;7.15;;;1.60;;
60372;SDS011;46216;52.220;5.134;2022-09-16T00:02:37;6.90;;;1.70;;
60372;SDS011;46216;52.220;5.134;2022-09-16T00:05:02;6.97;;;1.60;;
60372;SDS011;46216;52.220;5.134;2022-09-16T00:07:28;3.10;;;1.52;;
60372;SDS011;46216;52.220;5.134;2022-09-16T00:09:54;8.95;;;1.80;;
60372;SDS011;46216;52.220;5.134;2022-09-16T00:12:19;5.90;;;1.50;;
60372;SDS011;46216;52.220;5.134;2022-09-16T00:14:44;4.40;;;1.38;;
60372;SDS011;46216;52.220;5.134;2022-09-16T00:17:10;4.35;;;1.40;;
60372;SDS011;46216;52.220;5.134;2022-09-16T00:19:35;8.02;;;1.60;;
60372;SDS011;46216;52.220;5.134;2022-09-16T00:22:00;6.45;;;1.60;;
60372;SDS011;46216;52.220;5.134;2022-09-16T00:24:26;6.82;;;1.60;;
60372;SDS011;46216;52.220;5.134;2022-09-16T00:26:52;6.68;;;1.80;;
60372;SDS011;46216;52.220;5.134;2022-09-16T00:29:17;7.45;;;1.60;;
60372;SDS011;46216;52.220;5.134;2022-09-16T00:31:43;5.28;;;1.60;;
60372;SDS011;46216;52.220;5.134;2022-09-16T00:34:08;5.28;;;1.40;;
60372;SDS011;46216;52.220;5.134;2022-09-16T00:36:33;6.28;;;1.15;;
60372;SDS011;46216;52.220;5.134;2022-09-16T00:38:58;6.88;;;1.38;;
60372;SDS011;46216;52.220;5.134;2022-09-16T00:41:25;5.65;;;1.20;;
60372;SDS011;46216;52.220;5.134;2022-09-16T00:43:53;3.40;;;1.05;;
60372;SDS011;46216;52.220;5.134;2022-09-16T00:46:24;5.32;;;1.25;;
60372;SDS011;46216;52.220;5.134;2022-09-16T00:48:55;6.45;;;1.27;;
60372;SDS011;46216;52.220;5.134;2022-09-16T00:51:21;4.63;;;1.10;;
60372;SDS011;46216;52.220;5.134;2022-09-16T00:53:50;4.63;;;1.33;;
60372;SDS011;46216;52.220;5.134;2022-09-16T00:56:21;3.95;;;1.50;;
60372;SDS011;46216;52.220;5.134;2022-09-16T00:59:05;6.00;;;1.40;;
60372;SDS011;46216;52.220;5.134;2022-09-16T01:01:35;5.63;;;1.38;;
60372;SDS011;46216;52.220;5.134;2022-09-16T01:04:05;5.35;;;1.20;;
60372;SDS011;46216;52.220;5.134;2022-09-16T01:06:37;7.05;;;1.20;;
60372;SDS011;46216;52.220;5.134;2022-09-16T01:09:03;5.18;;;1.33;;
60372;SDS011;46216;52.220;5.134;2022-09-16T01:11:29;4.80;;;1.10;;
60372;SDS011;46216;52.220;5.134;2022-09-16T01:13:55;4.90;;;1.20;;
60372;SDS011;46216;52.220;5.134;2022-09-16T01:16:41;5.13;;;1.08;;
60372;SDS011;46216;52.220;5.134;2022-09-16T01:19:25;3.50;;;0.90;;
60372;SDS011;46216;52.220;5.134;2022-09-16T01:25:09;7.18;;;1.00;;
60372;SDS011;46216;52.220;5.134;2022-09-16T01:44:01;6.07;;;1.00;;
60372;SDS011;46216;52.220;5.134;2022-09-16T01:46:46;3.67;;;1.10;;
60372;SDS011;46216;52.220;5.134;2022-09-16T01:49:20;3.75;;;1.00;;
60372;SDS011;46216;52.220;5.134;2022-09-16T01:51:50;4.55;;;0.98;;
60372;SDS011;46216;52.220;5.134;2022-09-16T01:54:34;6.55;;;1.20;;
60372;SDS011;46216;52.220;5.134;2022-09-16T01:57:15;2.33;;;1.02;;
60372;SDS011;46216;52.220;5.134;2022-09-16T01:59:46;4.53;;;1.05;;
60372;SDS011;46216;52.220;5.134;2022-09-16T02:02:26;5.22;;;1.00;;
60372;SDS011;46216;52.220;5.134;2022-09-16T02:04:55;6.95;;;1.40;;
60372;SDS011;46216;52.220;5.134;2022-09-16T02:07:25;5.78;;;1.35;;
60372;SDS011;46216;52.220;5.134;2022-09-16T02:09:56;5.15;;;1.10;;
60372;SDS011;46216;52.220;5.134;2022-09-16T02:12:25;7.00;;;1.20;;
60372;SDS011;46216;52.220;5.134;2022-09-16T02:14:58;5.10;;;1.20;;
60372;SDS011;46216;52.220;5.134;2022-09-16T02:17:31;4.32;;;1.35;;
60372;SDS011;46216;52.220;5.134;2022-09-16T02:22:33;5.38;;;1.35;;
60372;SDS011;46216;52.220;5.134;2022-09-16T02:25:04;3.67;;;1.30;;
60372;SDS011;46216;52.220;5.134;2022-09-16T02:27:31;4.95;;;1.20;;
60372;SDS011;46216;52.220;5.134;2022-09-16T02:30:00;5.10;;;1.30;;
60372;SDS011;46216;52.220;5.134;2022-09-16T02:32:29;6.30;;;1.30;;
60372;SDS011;46216;52.220;5.134;2022-09-16T02:34:58;6.32;;;1.70;;
60372;SDS011;46216;52.220;5.134;2022-09-16T02:37:30;6.28;;;1.55;;
60372;SDS011;46216;52.220;5.134;2022-09-16T02:40:02;6.55;;;1.30;;
60372;SDS011;46216;52.220;5.134;2022-09-16T02:42:32;7.93;;;1.50;;
60372;SDS011;46216;52.220;5.134;2022-09-16T02:44:58;6.35;;;1.60;;
60372;SDS011;46216;52.220;5.134;2022-09-16T02:50:08;8.40;;;1.20;;
60372;SDS011;46216;52.220;5.134;2022-09-16T02:52:40;4.82;;;1.33;;
60372;SDS011;46216;52.220;5.134;2022-09-16T02:55:17;4.07;;;1.30;;
60372;SDS011;46216;52.220;5.134;2022-09-16T02:57:52;4.43;;;1.20;;
60372;SDS011;46216;52.220;5.134;2022-09-16T03:00:18;8.30;;;1.25;;
60372;SDS011;46216;52.220;5.134;2022-09-16T03:02:44;8.75;;;1.38;;
60372;SDS011;46216;52.220;5.134;2022-09-16T03:05:09;4.13;;;1.20;;
60372;SDS011;46216;52.220;5.134;2022-09-16T03:07:35;6.35;;;1.27;;
60372;SDS011;46216;52.220;5.134;2022-09-16T03:10:04;8.93;;;1.67;;
60372;SDS011;46216;52.220;5.134;2022-09-16T03:29:08;5.43;;;1.10;;
60372;SDS011;46216;52.220;5.134;2022-09-16T03:31:43;4.95;;;0.82;;
60372;SDS011;46216;52.220;5.134;2022-09-16T03:36:57;3.38;;;1.05;;
60372;SDS011;46216;52.220;5.134;2022-09-16T03:39:24;4.03;;;1.17;;
60372;SDS011;46216;52.220;5.134;2022-09-16T03:41:50;4.68;;;1.10;;
60372;SDS011;46216;52.220;5.134;2022-09-16T03:44:15;2.13;;;0.93;;
60372;SDS011;46216;52.220;5.134;2022-09-16T03:46:41;3.42;;;1.00;;
60372;SDS011;46216;52.220;5.134;2022-09-16T03:49:06;3.85;;;1.00;;
60372;SDS011;46216;52.220;5.134;2022-09-16T03:51:32;3.10;;;0.98;;
60372;SDS011;46216;52.220;5.134;2022-09-16T03:53:57;4.72;;;1.02;;
60372;SDS011;46216;52.220;5.134;2022-09-16T03:56:23;3.40;;;0.90;;
60372;SDS011;46216;52.220;5.134;2022-09-16T03:58:48;6.18;;;1.33;;
60372;SDS011;46216;52.220;5.134;2022-09-16T04:01:14;5.32;;;1.00;;
60372;SDS011;46216;52.220;5.134;2022-09-16T04:03:40;8.40;;;1.00;;
60372;SDS011;46216;52.220;5.134;2022-09-16T04:06:08;4.30;;;1.08;;
60372;SDS011;46216;52.220;5.134;2022-09-16T04:08:34;4.60;;;1.20;;
60372;SDS011;46216;52.220;5.134;2022-09-16T04:11:00;4.10;;;1.00;;
60372;SDS011;46216;52.220;5.134;2022-09-16T04:13:28;3.95;;;1.10;;
60372;SDS011;46216;52.220;5.134;2022-09-16T04:15:54;4.53;;;1.10;;
60372;SDS011;46216;52.220;5.134;2022-09-16T04:18:20;3.90;;;1.13;;
60372;SDS011;46216;52.220;5.134;2022-09-16T04:20:45;4.68;;;1.00;;
60372;SDS011;46216;52.220;5.134;2022-09-16T04:23:10;2.92;;;1.15;;
60372;SDS011;46216;52.220;5.134;2022-09-16T04:25:36;4.63;;;1.00;;
60372;SDS011;46216;52.220;5.134;2022-09-16T04:28:01;5.40;;;0.90;;
60372;SDS011;46216;52.220;5.134;2022-09-16T04:30:27;4.20;;;1.20;;
60372;SDS011;46216;52.220;5.134;2022-09-16T04:32:52;7.55;;;1.40;;
60372;SDS011;46216;52.220;5.134;2022-09-16T04:35:18;4.18;;;1.38;;
60372;SDS011;46216;52.220;5.134;2022-09-16T04:37:44;7.10;;;1.60;;
60372;SDS011;46216;52.220;5.134;2022-09-16T04:40:10;5.15;;;1.40;;
60372;SDS011;46216;52.220;5.134;2022-09-16T04:42:35;2.70;;;1.25;;
60372;SDS011;46216;52.220;5.134;2022-09-16T04:45:01;5.32;;;1.42;;
60372;SDS011;46216;52.220;5.134;2022-09-16T04:47:26;5.28;;;1.55;;
60372;SDS011;46216;52.220;5.134;2022-09-16T04:49:51;4.47;;;1.27;;
60372;SDS011;46216;52.220;5.134;2022-09-16T04:52:16;4.18;;;1.40;;
60372;SDS011;46216;52.220;5.134;2022-09-16T04:54:42;9.02;;;1.40;;
60372;SDS011;46216;52.220;5.134;2022-09-16T04:57:07;7.38;;;1.88;;
60372;SDS011;46216;52.220;5.134;2022-09-16T04:59:32;7.40;;;1.50;;
60372;SDS011;46216;52.220;5.134;2022-09-16T05:01:58;7.03;;;1.40;;
60372;SDS011;46216;52.220;5.134;2022-09-16T05:04:23;5.10;;;1.42;;
60372;SDS011;46216;52.220;5.134;2022-09-16T05:06:49;6.07;;;1.30;;
60372;SDS011;46216;52.220;5.134;2022-09-16T05:09:14;6.43;;;1.40;;
60372;SDS011;46216;52.220;5.134;2022-09-16T05:11:39;8.05;;;1.48;;
60372;SDS011;46216;52.220;5.134;2022-09-16T05:14:06;5.82;;;1.42;;
60372;SDS011;46216;52.220;5.134;2022-09-16T05:16:34;9.80;;;1.80;;
60372;SDS011;46216;52.220;5.134;2022-09-16T05:19:00;7.00;;;1.65;;
60372;SDS011;46216;52.220;5.134;2022-09-16T05:21:28;6.80;;;1.73;;
60372;SDS011;46216;52.220;5.134;2022-09-16T05:23:58;9.88;;;1.90;;
60372;SDS011;46216;52.220;5.134;2022-09-16T05:26:26;10.13;;;2.17;;
60372;SDS011;46216;52.220;5.134;2022-09-16T05:28:53;4.35;;;1.50;;
60372;SDS011;46216;52.220;5.134;2022-09-16T05:33:46;7.50;;;1.70;;
60372;SDS011;46216;52.220;5.134;2022-09-16T05:36:19;12.63;;;1.63;;
60372;SDS011;46216;52.220;5.134;2022-09-16T05:38:45;9.57;;;1.40;;
60372;SDS011;46216;52.220;5.134;2022-09-16T05:41:11;7.53;;;1.63;;
60372;SDS011;46216;52.220;5.134;2022-09-16T05:43:37;4.60;;;1.40;;
60372;SDS011;46216;52.220;5.134;2022-09-16T05:46:03;3.20;;;1.27;;
60372;SDS011;46216;52.220;5.134;2022-09-16T05:48:30;4.43;;;1.20;;
60372;SDS011;46216;52.220;5.134;2022-09-16T05:53:25;7.85;;;1.55;;
60372;SDS011;46216;52.220;5.134;2022-09-16T05:55:55;6.13;;;1.65;;
60372;SDS011;46216;52.220;5.134;2022-09-16T05:58:22;12.02;;;1.75;;
60372;SDS011;46216;52.220;5.134;2022-09-16T06:00:48;5.28;;;1.63;;
60372;SDS011;46216;52.220;5.134;2022-09-16T06:03:14;7.45;;;1.65;;
60372;SDS011;46216;52.220;5.134;2022-09-16T06:05:39;9.32;;;1.70;;
60372;SDS011;46216;52.220;5.134;2022-09-16T06:08:04;4.68;;;1.45;;
60372;SDS011;46216;52.220;5.134;2022-09-16T06:10:30;5.22;;;1.10;;
60372;SDS011;46216;52.220;5.134;2022-09-16T06:12:55;9.98;;;1.60;;
60372;SDS011;46216;52.220;5.134;2022-09-16T06:15:20;8.27;;;1.50;;
60372;SDS011;46216;52.220;5.134;2022-09-16T06:17:46;6.20;;;1.40;;
60372;SDS011;46216;52.220;5.134;2022-09-16T06:20:11;4.25;;;1.30;;
60372;SDS011;46216;52.220;5.134;2022-09-16T06:22:38;8.02;;;1.50;;
60372;SDS011;46216;52.220;5.134;2022-09-16T06:25:05;9.45;;;1.35;;
60372;SDS011;46216;52.220;5.134;2022-09-16T06:27:31;5.95;;;1.30;;
60372;SDS011;46216;52.220;5.134;2022-09-16T06:29:56;11.65;;;1.95;;
60372;SDS011;46216;52.220;5.134;2022-09-16T06:32:22;9.52;;;1.52;;
60372;SDS011;46216;52.220;5.134;2022-09-16T06:34:47;5.75;;;1.25;;
60372;SDS011;46216;52.220;5.134;2022-09-16T06:37:14;10.38;;;1.73;;
60372;SDS011;46216;52.220;5.134;2022-09-16T06:39:39;7.72;;;1.50;;
60372;SDS011;46216;52.220;5.134;2022-09-16T06:42:06;11.43;;;1.70;;
60372;SDS011;46216;52.220;5.134;2022-09-16T06:44:33;5.53;;;1.30;;
60372;SDS011;46216;52.220;5.134;2022-09-16T06:46:58;9.00;;;1.40;;
60372;SDS011;46216;52.220;5.134;2022-09-16T06:49:23;6.57;;;1.23;;
60372;SDS011;46216;52.220;5.134;2022-09-16T06:51:49;3.28;;;0.95;;
60372;SDS011;46216;52.220;5.134;2022-09-16T06:54:15;4.93;;;1.00;;
60372;SDS011;46216;52.220;5.134;2022-09-16T06:56:41;8.13;;;1.10;;
60372;SDS011;46216;52.220;5.134;2022-09-16T06:59:06;3.45;;;0.98;;
60372;SDS011;46216;52.220;5.134;2022-09-16T07:01:32;5.32;;;1.58;;
60372;SDS011;46216;52.220;5.134;2022-09-16T07:04:00;6.28;;;1.10;;
60372;SDS011;46216;52.220;5.134;2022-09-16T07:06:29;5.40;;;1.20;;
60372;SDS011;46216;52.220;5.134;2022-09-16T07:08:55;3.83;;;1.25;;
60372;SDS011;46216;52.220;5.134;2022-09-16T07:11:21;8.15;;;1.50;;
60372;SDS011;46216;52.220;5.134;2022-09-16T07:13:47;3.50;;;1.13;;
60372;SDS011;46216;52.220;5.134;2022-09-16T07:16:15;4.55;;;1.17;;
60372;SDS011;46216;52.220;5.134;2022-09-16T07:18:42;5.68;;;1.00;;
60372;SDS011;46216;52.220;5.134;2022-09-16T07:21:12;4.40;;;0.90;;
60372;SDS011;46216;52.220;5.134;2022-09-16T07:23:39;4.75;;;0.90;;
60372;SDS011;46216;52.220;5.134;2022-09-16T07:26:06;3.25;;;0.90;;
60372;SDS011;46216;52.220;5.134;2022-09-16T07:28:37;5.20;;;0.80;;
60372;SDS011;46216;52.220;5.134;2022-09-16T07:31:04;4.13;;;0.88;;
60372;SDS011;46216;52.220;5.134;2022-09-16T07:33:34;3.17;;;0.95;;
60372;SDS011;46216;52.220;5.134;2022-09-16T07:36:01;6.13;;;1.40;;
60372;SDS011;46216;52.220;5.134;2022-09-16T07:38:29;3.67;;;1.00;;
60372;SDS011;46216;52.220;5.134;2022-09-16T07:40:54;4.20;;;0.90;;
60372;SDS011;46216;52.220;5.134;2022-09-16T07:43:20;2.38;;;0.90;;
60372;SDS011;46216;52.220;5.134;2022-09-16T07:45:46;5.63;;;1.10;;
60372;SDS011;46216;52.220;5.134;2022-09-16T07:48:11;4.80;;;1.10;;
60372;SDS011;46216;52.220;5.134;2022-09-16T07:50:36;4.85;;;1.08;;
60372;SDS011;46216;52.220;5.134;2022-09-16T07:53:02;6.25;;;1.30;;
60372;SDS011;46216;52.220;5.134;2022-09-16T07:55:28;5.15;;;1.42;;
60372;SDS011;46216;52.220;5.134;2022-09-16T07:57:53;4.82;;;1.35;;
60372;SDS011;46216;52.220;5.134;2022-09-16T08:00:19;4.10;;;1.35;;
60372;SDS011;46216;52.220;5.134;2022-09-16T08:02:45;6.45;;;1.33;;
60372;SDS011;46216;52.220;5.134;2022-09-16T08:05:10;5.03;;;1.30;;
60372;SDS011;46216;52.220;5.134;2022-09-16T08:07:37;4.72;;;1.30;;
60372;SDS011;46216;52.220;5.134;2022-09-16T08:10:02;5.50;;;1.02;;
60372;SDS011;46216;52.220;5.134;2022-09-16T08:12:28;5.95;;;1.40;;
60372;SDS011;46216;52.220;5.134;2022-09-16T08:14:56;5.18;;;1.25;;
60372;SDS011;46216;52.220;5.134;2022-09-16T08:17:23;3.67;;;1.10;;
60372;SDS011;46216;52.220;5.134;2022-09-16T08:19:49;6.03;;;1.20;;
60372;SDS011;46216;52.220;5.134;2022-09-16T08:22:14;4.68;;;1.27;;
60372;SDS011;46216;52.220;5.134;2022-09-16T08:24:39;4.32;;;1.20;;
60372;SDS011;46216;52.220;5.134;2022-09-16T08:27:05;5.90;;;1.10;;
60372;SDS011;46216;52.220;5.134;2022-09-16T08:29:30;2.88;;;0.95;;
60372;SDS011;46216;52.220;5.134;2022-09-16T08:31:55;4.68;;;0.93;;
60372;SDS011;46216;52.220;5.134;2022-09-16T08:34:21;6.55;;;1.10;;
60372;SDS011;46216;52.220;5.134;2022-09-16T08:36:46;2.83;;;0.88;;
60372;SDS011;46216;52.220;5.134;2022-09-16T08:39:11;2.88;;;1.00;;
60372;SDS011;46216;52.220;5.134;2022-09-16T08:46:53;4.78;;;0.90;;
60372;SDS011;46216;52.220;5.134;2022-09-16T08:49:50;5.93;;;1.00;;
60372;SDS011;46216;52.220;5.134;2022-09-16T08:52:30;5.38;;;1.05;;
60372;SDS011;46216;52.220;5.134;2022-09-16T08:55:03;4.30;;;0.90;;
60372;SDS011;46216;52.220;5.134;2022-09-16T08:57:43;2.88;;;0.90;;
60372;SDS011;46216;52.220;5.134;2022-09-16T09:00:22;4.90;;;0.98;;
60372;SDS011;46216;52.220;5.134;2022-09-16T09:11:25;4.70;;;1.10;;
60372;SDS011;46216;52.220;5.134;2022-09-16T09:31:54;3.85;;;1.08;;
60372;SDS011;46216;52.220;5.134;2022-09-16T09:40:12;4.93;;;1.08;;
60372;SDS011;46216;52.220;5.134;2022-09-16T09:45:15;2.30;;;0.70;;
60372;SDS011;46216;52.220;5.134;2022-09-16T09:47:54;2.95;;;0.80;;
60372;SDS011;46216;52.220;5.134;2022-09-16T09:50:27;3.65;;;0.82;;
60372;SDS011;46216;52.220;5.134;2022-09-16T09:55:35;3.47;;;0.60;;
60372;SDS011;46216;52.220;5.134;2022-09-16T10:00:38;4.30;;;0.80;;
60372;SDS011;46216;52.220;5.134;2022-09-16T10:03:14;5.25;;;1.10;;
60372;SDS011;46216;52.220;5.134;2022-09-16T10:05:41;3.67;;;0.80;;
60372;SDS011;46216;52.220;5.134;2022-09-16T10:10:49;4.78;;;0.90;;
60372;SDS011;46216;52.220;5.134;2022-09-16T10:13:16;3.47;;;0.90;;
60372;SDS011;46216;52.220;5.134;2022-09-16T10:15:43;3.28;;;0.90;;
60372;SDS011;46216;52.220;5.134;2022-09-16T10:18:17;3.58;;;0.90;;
60372;SDS011;46216;52.220;5.134;2022-09-16T10:23:29;5.40;;;1.00;;
60372;SDS011;46216;52.220;5.134;2022-09-16T10:26:29;2.53;;;0.90;;
60372;SDS011;46216;52.220;5.134;2022-09-16T10:29:22;6.38;;;0.93;;
60372;SDS011;46216;52.220;5.134;2022-09-16T10:31:43;3.42;;;1.00;;
60372;SDS011;46216;52.220;5.134;2022-09-16T10:37:12;2.83;;;0.88;;
60372;SDS011;46216;52.220;5.134;2022-09-16T10:39:42;5.28;;;1.10;;
60372;SDS011;46216;52.220;5.134;2022-09-16T10:42:16;6.75;;;1.25;;
60372;SDS011;46216;52.220;5.134;2022-09-16T10:44:45;5.00;;;1.10;;
60372;SDS011;46216;52.220;5.134;2022-09-16T10:49:55;5.00;;;1.30;;
60372;SDS011;46216;52.220;5.134;2022-09-16T10:52:26;6.55;;;1.52;;
60372;SDS011;46216;52.220;5.134;2022-09-16T10:54:53;6.65;;;1.35;;
60372;SDS011;46216;52.220;5.134;2022-09-16T10:57:20;6.75;;;1.25;;
60372;SDS011;46216;52.220;5.134;2022-09-16T11:17:18;5.38;;;1.13;;
60372;SDS011;46216;52.220;5.134;2022-09-16T11:20:05;7.22;;;1.10;;
60372;SDS011;46216;52.220;5.134;2022-09-16T11:42:41;6.03;;;1.20;;
60372;SDS011;46216;52.220;5.134;2022-09-16T11:47:55;5.88;;;1.75;;
60372;SDS011;46216;52.220;5.134;2022-09-16T11:56:14;7.78;;;1.52;;
60372;SDS011;46216;52.220;5.134;2022-09-16T12:03:58;6.10;;;1.30;;
60372;SDS011;46216;52.220;5.134;2022-09-16T12:06:45;8.27;;;1.13;;
60372;SDS011;46216;52.220;5.134;2022-09-16T12:09:21;6.35;;;1.17;;
60372;SDS011;46216;52.220;5.134;2022-09-16T12:12:05;5.30;;;1.30;;
60372;SDS011;46216;52.220;5.134;2022-09-16T12:15:04;4.78;;;1.08;;
60372;SDS011;46216;52.220;5.134;2022-09-16T12:17:38;5.45;;;1.27;;
60372;SDS011;46216;52.220;5.134;2022-09-16T12:20:17;5.97;;;1.42;;
60372;SDS011;46216;52.220;5.134;2022-09-16T12:22:50;5.32;;;1.20;;
60372;SDS011;46216;52.220;5.134;2022-09-16T12:25:27;5.32;;;1.20;;
60372;SDS011;46216;52.220;5.134;2022-09-16T12:28:03;7.28;;;1.30;;
60372;SDS011;46216;52.220;5.134;2022-09-16T12:30:37;7.30;;;1.25;;
60372;SDS011;46216;52.220;5.134;2022-09-16T12:33:12;6.00;;;1.13;;
60372;SDS011;46216;52.220;5.134;2022-09-16T12:35:55;5.32;;;1.30;;
60372;SDS011;46216;52.220;5.134;2022-09-16T12:38:26;8.23;;;1.70;;
60372;SDS011;46216;52.220;5.134;2022-09-16T12:41:08;6.38;;;1.30;;
60372;SDS011;46216;52.220;5.134;2022-09-16T12:47:07;6.28;;;1.50;;
60372;SDS011;46216;52.220;5.134;2022-09-16T13:03:44;7.70;;;1.40;;
60372;SDS011;46216;52.220;5.134;2022-09-16T13:06:54;5.88;;;1.35;;
60372;SDS011;46216;52.220;5.134;2022-09-16T13:11:56;8.23;;;1.42;;
60372;SDS011;46216;52.220;5.134;2022-09-16T13:14:32;5.22;;;1.40;;
60372;SDS011;46216;52.220;5.134;2022-09-16T13:17:03;8.32;;;1.48;;
60372;SDS011;46216;52.220;5.134;2022-09-16T13:19:36;6.28;;;1.27;;
60372;SDS011;46216;52.220;5.134;2022-09-16T13:22:20;8.02;;;1.48;;
60372;SDS011;46216;52.220;5.134;2022-09-16T13:24:49;6.43;;;1.20;;
60372;SDS011;46216;52.220;5.134;2022-09-16T13:30:09;5.82;;;1.20;;
60372;SDS011;46216;52.220;5.134;2022-09-16T13:32:41;4.28;;;1.10;;
60372;SDS011;46216;52.220;5.134;2022-09-16T13:37:42;6.47;;;1.00;;
60372;SDS011;46216;52.220;5.134;2022-09-16T13:40:15;6.50;;;1.40;;
60372;SDS011;46216;52.220;5.134;2022-09-16T13:43:02;7.43;;;1.25;;
60372;SDS011;46216;52.220;5.134;2022-09-16T13:45:40;3.67;;;1.10;;
60372;SDS011;46216;52.220;5.134;2022-09-16T13:48:17;6.95;;;1.25;;
60372;SDS011;46216;52.220;5.134;2022-09-16T13:50:55;3.92;;;1.50;;
60372;SDS011;46216;52.220;5.134;2022-09-16T13:56:01;3.90;;;1.10;;
60372;SDS011;46216;52.220;5.134;2022-09-16T13:58:32;7.38;;;1.23;;
60372;SDS011;46216;52.220;5.134;2022-09-16T14:06:43;6.70;;;1.30;;
60372;SDS011;46216;52.220;5.134;2022-09-16T14:09:40;7.82;;;1.40;;
60372;SDS011;46216;52.220;5.134;2022-09-16T14:12:21;7.40;;;1.40;;
60372;SDS011;46216;52.220;5.134;2022-09-16T14:14:56;7.68;;;1.40;;
60372;SDS011;46216;52.220;5.134;2022-09-16T14:17:23;4.38;;;0.93;;
60372;SDS011;46216;52.220;5.134;2022-09-16T14:19:52;4.82;;;1.17;;
60372;SDS011;46216;52.220;5.134;2022-09-16T14:22:24;6.15;;;1.30;;
60372;SDS011;46216;52.220;5.134;2022-09-16T14:24:51;5.03;;;1.02;;
60372;SDS011;46216;52.220;5.134;2022-09-16T14:27:26;5.50;;;1.38;;
60372;SDS011;46216;52.220;5.134;2022-09-16T14:30:14;5.45;;;1.20;;
60372;SDS011;46216;52.220;5.134;2022-09-16T14:32:41;7.05;;;1.20;;
60372;SDS011;46216;52.220;5.134;2022-09-16T14:37:48;7.65;;;1.40;;
60372;SDS011;46216;52.220;5.134;2022-09-16T14:40:19;10.55;;;1.90;;
60372;SDS011;46216;52.220;5.134;2022-09-16T14:42:48;7.18;;;1.35;;
60372;SDS011;46216;52.220;5.134;2022-09-16T14:45:35;8.50;;;1.85;;
60372;SDS011;46216;52.220;5.134;2022-09-16T14:48:04;9.55;;;1.92;;
60372;SDS011;46216;52.220;5.134;2022-09-16T14:50:35;10.13;;;3.00;;
60372;SDS011;46216;52.220;5.134;2022-09-16T14:53:03;9.68;;;1.83;;
60372;SDS011;46216;52.220;5.134;2022-09-16T14:55:31;7.75;;;1.65;;
60372;SDS011;46216;52.220;5.134;2022-09-16T14:58:00;7.60;;;1.60;;
60372;SDS011;46216;52.220;5.134;2022-09-16T15:00:38;8.25;;;1.55;;
60372;SDS011;46216;52.220;5.134;2022-09-16T15:05:43;11.60;;;2.13;;
60372;SDS011;46216;52.220;5.134;2022-09-16T15:08:27;7.78;;;1.80;;
60372;SDS011;46216;52.220;5.134;2022-09-16T15:11:00;5.30;;;1.35;;
60372;SDS011;46216;52.220;5.134;2022-09-16T15:13:36;6.97;;;1.92;;
60372;SDS011;46216;52.220;5.134;2022-09-16T15:18:32;8.85;;;2.08;;
60372;SDS011;46216;52.220;5.134;2022-09-16T15:23:32;6.15;;;1.33;;
60372;SDS011;46216;52.220;5.134;2022-09-16T15:29:01;7.45;;;1.40;;
60372;SDS011;46216;52.220;5.134;2022-09-16T15:31:39;6.53;;;1.50;;
60372;SDS011;46216;52.220;5.134;2022-09-16T15:36:43;5.72;;;1.10;;
60372;SDS011;46216;52.220;5.134;2022-09-16T15:39:26;5.90;;;1.08;;
60372;SDS011;46216;52.220;5.134;2022-09-16T15:44:42;6.05;;;1.35;;
60372;SDS011;46216;52.220;5.134;2022-09-16T15:47:18;7.38;;;1.50;;
60372;SDS011;46216;52.220;5.134;2022-09-16T15:49:48;5.60;;;1.38;;
60372;SDS011;46216;52.220;5.134;2022-09-16T15:52:18;10.43;;;1.63;;
60372;SDS011;46216;52.220;5.134;2022-09-16T16:05:26;6.75;;;1.45;;
60372;SDS011;46216;52.220;5.134;2022-09-16T16:07:55;6.93;;;1.55;;
60372;SDS011;46216;52.220;5.134;2022-09-16T16:12:55;6.82;;;1.50;;
60372;SDS011;46216;52.220;5.134;2022-09-16T16:15:28;10.23;;;1.85;;
60372;SDS011;46216;52.220;5.134;2022-09-16T16:17:58;9.95;;;1.83;;
60372;SDS011;46216;52.220;5.134;2022-09-16T16:20:29;8.65;;;1.90;;
60372;SDS011;46216;52.220;5.134;2022-09-16T16:22:58;10.18;;;2.10;;
60372;SDS011;46216;52.220;5.134;2022-09-16T16:25:24;7.55;;;1.60;;
60372;SDS011;46216;52.220;5.134;2022-09-16T16:27:50;6.90;;;1.40;;
60372;SDS011;46216;52.220;5.134;2022-09-16T16:30:16;6.72;;;1.40;;
60372;SDS011;46216;52.220;5.134;2022-09-16T16:32:41;5.85;;;1.50;;
60372;SDS011;46216;52.220;5.134;2022-09-16T16:35:06;7.65;;;1.20;;
60372;SDS011;46216;52.220;5.134;2022-09-16T16:37:32;4.20;;;1.35;;
60372;SDS011;46216;52.220;5.134;2022-09-16T16:39:58;7.60;;;1.45;;
60372;SDS011;46216;52.220;5.134;2022-09-16T16:42:23;7.18;;;1.67;;
60372;SDS011;46216;52.220;5.134;2022-09-16T16:44:48;10.45;;;1.48;;
60372;SDS011;46216;52.220;5.134;2022-09-16T16:47:14;6.97;;;1.77;;
60372;SDS011;46216;52.220;5.134;2022-09-16T16:49:39;5.10;;;1.40;;
60372;SDS011;46216;52.220;5.134;2022-09-16T16:52:05;6.38;;;1.58;;
60372;SDS011;46216;52.220;5.134;2022-09-16T16:54:31;7.53;;;1.95;;
60372;SDS011;46216;52.220;5.134;2022-09-16T16:56:57;8.90;;;2.22;;
60372;SDS011;46216;52.220;5.134;2022-09-16T16:59:24;9.60;;;1.70;;
60372;SDS011;46216;52.220;5.134;2022-09-16T17:01:51;7.50;;;1.70;;
60372;SDS011;46216;52.220;5.134;2022-09-16T17:04:20;10.57;;;1.80;;
60372;SDS011;46216;52.220;5.134;2022-09-16T17:06:47;8.57;;;2.15;;
60372;SDS011;46216;52.220;5.134;2022-09-16T17:09:12;8.93;;;2.22;;
60372;SDS011;46216;52.220;5.134;2022-09-16T17:11:54;10.80;;;2.15;;
60372;SDS011;46216;52.220;5.134;2022-09-16T17:14:21;8.45;;;1.80;;
60372;SDS011;46216;52.220;5.134;2022-09-16T17:16:48;6.68;;;1.75;;
60372;SDS011;46216;52.220;5.134;2022-09-16T17:19:15;8.88;;;1.80;;
60372;SDS011;46216;52.220;5.134;2022-09-16T17:21:41;8.60;;;1.88;;
60372;SDS011;46216;52.220;5.134;2022-09-16T17:24:08;8.65;;;2.13;;
60372;SDS011;46216;52.220;5.134;2022-09-16T17:26:33;10.85;;;2.10;;
60372;SDS011;46216;52.220;5.134;2022-09-16T17:28:58;10.05;;;1.80;;
60372;SDS011;46216;52.220;5.134;2022-09-16T17:31:25;10.32;;;1.92;;
60372;SDS011;46216;52.220;5.134;2022-09-16T17:34:03;6.57;;;1.80;;
60372;SDS011;46216;52.220;5.134;2022-09-16T17:36:34;10.73;;;2.00;;
60372;SDS011;46216;52.220;5.134;2022-09-16T17:39:03;8.15;;;2.03;;
60372;SDS011;46216;52.220;5.134;2022-09-16T17:41:30;9.45;;;2.20;;
60372;SDS011;46216;52.220;5.134;2022-09-16T17:43:56;10.43;;;2.00;;
60372;SDS011;46216;52.220;5.134;2022-09-16T17:46:23;10.18;;;1.98;;
60372;SDS011;46216;52.220;5.134;2022-09-16T17:48:51;8.27;;;1.83;;
60372;SDS011;46216;52.220;5.134;2022-09-16T17:51:18;7.68;;;2.00;;
60372;SDS011;46216;52.220;5.134;2022-09-16T17:53:43;9.43;;;2.13;;
60372;SDS011;46216;52.220;5.134;2022-09-16T17:56:13;6.28;;;1.92;;
60372;SDS011;46216;52.220;5.134;2022-09-16T17:58:41;7.00;;;1.70;;
60372;SDS011;46216;52.220;5.134;2022-09-16T18:01:15;6.00;;;1.63;;
60372;SDS011;46216;52.220;5.134;2022-09-16T18:03:43;10.07;;;1.65;;
60372;SDS011;46216;52.220;5.134;2022-09-16T18:08:40;8.40;;;1.80;;
60372;SDS011;46216;52.220;5.134;2022-09-16T18:11:07;10.63;;;2.03;;
60372;SDS011;46216;52.220;5.134;2022-09-16T18:13:34;9.32;;;2.03;;
60372;SDS011;46216;52.220;5.134;2022-09-16T18:16:13;6.55;;;1.50;;
60372;SDS011;46216;52.220;5.134;2022-09-16T18:18:43;8.00;;;1.98;;
60372;SDS011;46216;52.220;5.134;2022-09-16T18:21:10;4.30;;;1.45;;
60372;SDS011;46216;52.220;5.134;2022-09-16T18:23:42;3.45;;;1.10;;
60372;SDS011;46216;52.220;5.134;2022-09-16T18:26:13;6.07;;;1.80;;
60372;SDS011;46216;52.220;5.134;2022-09-16T18:28:40;5.53;;;1.05;;
60372;SDS011;46216;52.220;5.134;2022-09-16T18:31:09;6.45;;;1.27;;
60372;SDS011;46216;52.220;5.134;2022-09-16T18:33:36;3.47;;;0.90;;
60372;SDS011;46216;52.220;5.134;2022-09-16T18:36:03;5.97;;;1.42;;
60372;SDS011;46216;52.220;5.134;2022-09-16T18:38:33;4.82;;;1.13;;
60372;SDS011;46216;52.220;5.134;2022-09-16T18:43:38;6.00;;;1.30;;
60372;SDS011;46216;52.220;5.134;2022-09-16T18:46:18;7.57;;;1.60;;
60372;SDS011;46216;52.220;5.134;2022-09-16T18:48:45;5.93;;;1.20;;